sensor_id;sensor_type;location;lat;lon;timestamp;temperature;humidity
19906;DHT22;10115;50.906;4.438;2022-12-17T00:02:15;-2.00;99.90
19906;DHT22;10115;50.906;4.438;2022-12-17T00:04:59;-2.30;99.90
19906;DHT22;10115;50.906;4.438;2022-12-17T00:07:43;-2.30;99.90
19906;DHT22;10115;50.906;4.438;2022-12-17T00:10:27;-2.20;99.90
19906;DHT22;10115;50.906;4.438;2022-12-17T00:13:21;-2.10;99.90
19906;DHT22;10115;50.906;4.438;2022-12-17T00:16:06;-2.20;99.90
19906;DHT22;10115;50.906;4.438;2022-12-17T00:18:50;-2.30;99.90
19906;DHT22;10115;50.906;4.438;2022-12-17T00:21:35;-2.20;99.90
19906;DHT22;10115;50.906;4.438;2022-12-17T00:24:19;-2.00;99.90
19906;DHT22;10115;50.906;4.438;2022-12-17T00:27:03;-2.00;99.90
19906;DHT22;10115;50.906;4.438;2022-12-17T00:29:47;-2.20;99.90
19906;DHT22;10115;50.906;4.438;2022-12-17T00:32:31;-2.40;99.90
19906;DHT22;10115;50.906;4.438;2022-12-17T00:35:15;-2.40;99.90
19906;DHT22;10115;50.906;4.438;2022-12-17T00:38:00;-2.50;99.90
19906;DHT22;10115;50.906;4.438;2022-12-17T00:40:52;-2.50;99.90
19906;DHT22;10115;50.906;4.438;2022-12-17T00:43:37;-2.40;99.90
19906;DHT22;10115;50.906;4.438;2022-12-17T00:46:21;-2.50;99.90
19906;DHT22;10115;50.906;4.438;2022-12-17T00:49:05;-2.50;99.90
19906;DHT22;10115;50.906;4.438;2022-12-17T00:51:49;-2.70;99.90
19906;DHT22;10115;50.906;4.438;2022-12-17T00:54:33;-2.70;99.90
19906;DHT22;10115;50.906;4.438;2022-12-17T00:57:18;-2.70;99.90
19906;DHT22;10115;50.906;4.438;2022-12-17T01:00:03;-2.70;99.90
19906;DHT22;10115;50.906;4.438;2022-12-17T01:02:48;-2.70;99.90
19906;DHT22;10115;50.906;4.438;2022-12-17T01:05:32;-2.70;99.90
19906;DHT22;10115;50.906;4.438;2022-12-17T01:08:26;-2.80;99.90
19906;DHT22;10115;50.906;4.438;2022-12-17T01:11:11;-2.80;99.90
19906;DHT22;10115;50.906;4.438;2022-12-17T01:13:55;-2.80;99.90
19906;DHT22;10115;50.906;4.438;2022-12-17T01:16:39;-2.80;99.90
19906;DHT22;10115;50.906;4.438;2022-12-17T01:19:23;-2.70;99.90
19906;DHT22;10115;50.906;4.438;2022-12-17T01:22:08;-2.60;99.90
19906;DHT22;10115;50.906;4.438;2022-12-17T01:24:52;-2.50;99.90
19906;DHT22;10115;50.906;4.438;2022-12-17T01:27:36;-2.50;99.90
19906;DHT22;10115;50.906;4.438;2022-12-17T01:30:21;-2.70;99.90
19906;DHT22;10115;50.906;4.438;2022-12-17T01:33:07;-2.60;99.90
19906;DHT22;10115;50.906;4.438;2022-12-17T01:35:56;-2.50;99.90
19906;DHT22;10115;50.906;4.438;2022-12-17T01:38:40;-2.70;99.90
19906;DHT22;10115;50.906;4.438;2022-12-17T01:41:24;-2.50;99.90
19906;DHT22;10115;50.906;4.438;2022-12-17T01:44:47;-2.60;99.90
19906;DHT22;10115;50.906;4.438;2022-12-17T01:47:37;-2.60;99.90
19906;DHT22;10115;50.906;4.438;2022-12-17T01:50:25;-2.70;99.90
19906;DHT22;10115;50.906;4.438;2022-12-17T01:53:10;-2.70;99.90
19906;DHT22;10115;50.906;4.438;2022-12-17T01:55:55;-2.70;99.90
19906;DHT22;10115;50.906;4.438;2022-12-17T01:58:40;-2.60;99.90
19906;DHT22;10115;50.906;4.438;2022-12-17T02:01:25;-2.70;99.90
19906;DHT22;10115;50.906;4.438;2022-12-17T02:04:10;-2.70;99.90
19906;DHT22;10115;50.906;4.438;2022-12-17T02:10:25;-3.00;99.90
19906;DHT22;10115;50.906;4.438;2022-12-17T02:13:19;-3.20;99.90
19906;DHT22;10115;50.906;4.438;2022-12-17T02:19:01;-3.30;99.90
19906;DHT22;10115;50.906;4.438;2022-12-17T02:21:49;-3.30;99.90
19906;DHT22;10115;50.906;4.438;2022-12-17T02:24:38;-3.20;99.90
19906;DHT22;10115;50.906;4.438;2022-12-17T02:27:27;-3.30;99.90
19906;DHT22;10115;50.906;4.438;2022-12-17T02:30:30;-3.20;99.90
19906;DHT22;10115;50.906;4.438;2022-12-17T02:33:15;-3.10;99.90
19906;DHT22;10115;50.906;4.438;2022-12-17T02:36:04;-3.10;99.90
19906;DHT22;10115;50.906;4.438;2022-12-17T02:38:49;-3.20;99.90
19906;DHT22;10115;50.906;4.438;2022-12-17T02:41:53;-3.10;99.90
19906;DHT22;10115;50.906;4.438;2022-12-17T02:44:40;-3.10;99.90
19906;DHT22;10115;50.906;4.438;2022-12-17T02:47:25;-3.20;99.90
19906;DHT22;10115;50.906;4.438;2022-12-17T02:50:11;-3.20;99.90
19906;DHT22;10115;50.906;4.438;2022-12-17T02:53:01;-3.20;99.90
19906;DHT22;10115;50.906;4.438;2022-12-17T02:55:46;-3.10;99.90
19906;DHT22;10115;50.906;4.438;2022-12-17T02:58:30;-3.20;99.90
19906;DHT22;10115;50.906;4.438;2022-12-17T03:01:14;-3.20;99.90
19906;DHT22;10115;50.906;4.438;2022-12-17T03:03:59;-3.20;99.90
19906;DHT22;10115;50.906;4.438;2022-12-17T03:06:43;-3.10;99.90
19906;DHT22;10115;50.906;4.438;2022-12-17T03:09:27;-3.20;99.90
19906;DHT22;10115;50.906;4.438;2022-12-17T03:12:11;-3.20;99.90
19906;DHT22;10115;50.906;4.438;2022-12-17T03:14:55;-3.20;99.90
19906;DHT22;10115;50.906;4.438;2022-12-17T03:17:40;-3.20;99.90
19906;DHT22;10115;50.906;4.438;2022-12-17T03:20:24;-3.20;99.90
19906;DHT22;10115;50.906;4.438;2022-12-17T03:23:09;-3.20;99.90
19906;DHT22;10115;50.906;4.438;2022-12-17T03:25:58;-3.30;99.90
19906;DHT22;10115;50.906;4.438;2022-12-17T03:28:42;-3.30;99.90
19906;DHT22;10115;50.906;4.438;2022-12-17T03:31:26;-3.30;99.90
19906;DHT22;10115;50.906;4.438;2022-12-17T03:34:11;-3.30;99.90
19906;DHT22;10115;50.906;4.438;2022-12-17T03:36:55;-3.30;99.90
19906;DHT22;10115;50.906;4.438;2022-12-17T03:39:39;-3.40;99.90
19906;DHT22;10115;50.906;4.438;2022-12-17T03:42:23;-3.40;99.90
19906;DHT22;10115;50.906;4.438;2022-12-17T03:45:08;-3.40;99.90
19906;DHT22;10115;50.906;4.438;2022-12-17T03:48:03;-3.30;99.90
19906;DHT22;10115;50.906;4.438;2022-12-17T03:50:48;-3.30;99.90
19906;DHT22;10115;50.906;4.438;2022-12-17T03:53:33;-3.40;99.90
19906;DHT22;10115;50.906;4.438;2022-12-17T03:56:17;-3.40;99.90
19906;DHT22;10115;50.906;4.438;2022-12-17T03:59:01;-3.40;99.90
19906;DHT22;10115;50.906;4.438;2022-12-17T04:01:45;-3.50;99.90
19906;DHT22;10115;50.906;4.438;2022-12-17T04:04:29;-3.50;99.90
19906;DHT22;10115;50.906;4.438;2022-12-17T04:07:13;-3.50;99.90
19906;DHT22;10115;50.906;4.438;2022-12-17T04:09:57;-3.40;99.90
19906;DHT22;10115;50.906;4.438;2022-12-17T04:12:41;-3.50;99.90
19906;DHT22;10115;50.906;4.438;2022-12-17T04:15:25;-3.60;99.90
19906;DHT22;10115;50.906;4.438;2022-12-17T04:18:09;-3.40;99.90
19906;DHT22;10115;50.906;4.438;2022-12-17T04:20:53;-3.60;99.90
19906;DHT22;10115;50.906;4.438;2022-12-17T04:23:42;-3.60;99.90
19906;DHT22;10115;50.906;4.438;2022-12-17T04:26:26;-3.50;99.90
19906;DHT22;10115;50.906;4.438;2022-12-17T04:29:10;-3.50;99.90
19906;DHT22;10115;50.906;4.438;2022-12-17T04:31:54;-3.60;99.90
19906;DHT22;10115;50.906;4.438;2022-12-17T04:34:38;-3.60;99.90
19906;DHT22;10115;50.906;4.438;2022-12-17T04:37:22;-3.60;99.90
19906;DHT22;10115;50.906;4.438;2022-12-17T04:40:06;-3.60;99.90
19906;DHT22;10115;50.906;4.438;2022-12-17T04:42:51;-3.70;99.90
19906;DHT22;10115;50.906;4.438;2022-12-17T04:45:35;-3.70;99.90
19906;DHT22;10115;50.906;4.438;2022-12-17T04:48:18;-3.70;99.90
19906;DHT22;10115;50.906;4.438;2022-12-17T04:51:03;-3.60;99.90
19906;DHT22;10115;50.906;4.438;2022-12-17T04:53:47;-3.60;99.90
19906;DHT22;10115;50.906;4.438;2022-12-17T04:56:31;-3.70;99.90
19906;DHT22;10115;50.906;4.438;2022-12-17T04:59:15;-3.70;99.90
19906;DHT22;10115;50.906;4.438;2022-12-17T05:01:59;-3.70;99.90
19906;DHT22;10115;50.906;4.438;2022-12-17T05:04:42;-3.60;99.90
19906;DHT22;10115;50.906;4.438;2022-12-17T05:07:27;-3.60;99.90
19906;DHT22;10115;50.906;4.438;2022-12-17T05:10:11;-3.50;99.90
19906;DHT22;10115;50.906;4.438;2022-12-17T05:12:58;-3.50;99.90
19906;DHT22;10115;50.906;4.438;2022-12-17T05:15:42;-3.20;99.90
19906;DHT22;10115;50.906;4.438;2022-12-17T05:18:27;-3.20;99.90
19906;DHT22;10115;50.906;4.438;2022-12-17T05:21:11;-3.30;99.90
19906;DHT22;10115;50.906;4.438;2022-12-17T05:23:55;-3.40;99.90
19906;DHT22;10115;50.906;4.438;2022-12-17T05:26:39;-3.50;99.90
19906;DHT22;10115;50.906;4.438;2022-12-17T05:29:23;-3.60;99.90
19906;DHT22;10115;50.906;4.438;2022-12-17T05:32:08;-3.70;99.90
19906;DHT22;10115;50.906;4.438;2022-12-17T05:34:52;-3.50;99.90
19906;DHT22;10115;50.906;4.438;2022-12-17T05:37:36;-3.50;99.90
19906;DHT22;10115;50.906;4.438;2022-12-17T05:40:20;-3.60;99.90
19906;DHT22;10115;50.906;4.438;2022-12-17T05:43:06;-3.50;99.90
19906;DHT22;10115;50.906;4.438;2022-12-17T05:45:52;-3.40;99.90
19906;DHT22;10115;50.906;4.438;2022-12-17T05:48:37;-3.30;99.90
19906;DHT22;10115;50.906;4.438;2022-12-17T05:51:21;-3.20;99.90
19906;DHT22;10115;50.906;4.438;2022-12-17T05:54:06;-3.20;99.90
19906;DHT22;10115;50.906;4.438;2022-12-17T05:56:51;-3.40;99.90
19906;DHT22;10115;50.906;4.438;2022-12-17T05:59:36;-3.50;99.90
19906;DHT22;10115;50.906;4.438;2022-12-17T06:02:21;-3.70;99.90
19906;DHT22;10115;50.906;4.438;2022-12-17T06:05:06;-3.50;99.90
19906;DHT22;10115;50.906;4.438;2022-12-17T06:07:50;-3.60;99.90
19906;DHT22;10115;50.906;4.438;2022-12-17T06:10:34;-3.60;99.90
19906;DHT22;10115;50.906;4.438;2022-12-17T06:13:19;-3.40;99.90
19906;DHT22;10115;50.906;4.438;2022-12-17T06:16:03;-3.30;99.90
19906;DHT22;10115;50.906;4.438;2022-12-17T06:18:47;-3.20;99.90
19906;DHT22;10115;50.906;4.438;2022-12-17T06:21:31;-3.20;99.90
19906;DHT22;10115;50.906;4.438;2022-12-17T06:24:16;-3.00;99.90
19906;DHT22;10115;50.906;4.438;2022-12-17T06:27:00;-3.10;99.90
19906;DHT22;10115;50.906;4.438;2022-12-17T06:29:44;-3.10;99.90
19906;DHT22;10115;50.906;4.438;2022-12-17T06:32:28;-3.20;99.90
19906;DHT22;10115;50.906;4.438;2022-12-17T06:35:12;-3.20;99.90
19906;DHT22;10115;50.906;4.438;2022-12-17T06:38:06;-3.40;99.90
19906;DHT22;10115;50.906;4.438;2022-12-17T06:40:51;-3.30;99.90
19906;DHT22;10115;50.906;4.438;2022-12-17T06:43:36;-3.40;99.90
19906;DHT22;10115;50.906;4.438;2022-12-17T06:46:20;-3.50;99.90
19906;DHT22;10115;50.906;4.438;2022-12-17T06:49:04;-3.40;99.90
19906;DHT22;10115;50.906;4.438;2022-12-17T06:51:48;-3.60;99.90
19906;DHT22;10115;50.906;4.438;2022-12-17T06:54:32;-3.90;99.90
19906;DHT22;10115;50.906;4.438;2022-12-17T06:57:16;-3.90;99.90
19906;DHT22;10115;50.906;4.438;2022-12-17T07:00:01;-3.80;99.90
19906;DHT22;10115;50.906;4.438;2022-12-17T07:02:45;-3.60;99.90
19906;DHT22;10115;50.906;4.438;2022-12-17T07:05:29;-3.40;99.90
19906;DHT22;10115;50.906;4.438;2022-12-17T07:08:13;-3.40;99.90
19906;DHT22;10115;50.906;4.438;2022-12-17T07:11:01;-3.40;99.90
19906;DHT22;10115;50.906;4.438;2022-12-17T07:13:45;-3.40;99.90
19906;DHT22;10115;50.906;4.438;2022-12-17T07:16:29;-3.30;99.90
19906;DHT22;10115;50.906;4.438;2022-12-17T07:19:13;-3.20;99.90
19906;DHT22;10115;50.906;4.438;2022-12-17T07:21:57;-3.50;99.90
19906;DHT22;10115;50.906;4.438;2022-12-17T07:24:41;-3.60;99.90
19906;DHT22;10115;50.906;4.438;2022-12-17T07:27:25;-3.50;99.90
19906;DHT22;10115;50.906;4.438;2022-12-17T07:30:10;-3.70;99.90
19906;DHT22;10115;50.906;4.438;2022-12-17T07:33:03;-3.80;99.90
19906;DHT22;10115;50.906;4.438;2022-12-17T07:35:48;-3.80;99.90
19906;DHT22;10115;50.906;4.438;2022-12-17T07:38:32;-3.70;99.90
19906;DHT22;10115;50.906;4.438;2022-12-17T07:41:17;-3.80;99.90
19906;DHT22;10115;50.906;4.438;2022-12-17T07:44:01;-3.90;99.90
19906;DHT22;10115;50.906;4.438;2022-12-17T07:46:45;-3.80;99.90
19906;DHT22;10115;50.906;4.438;2022-12-17T07:49:29;-3.80;99.90
19906;DHT22;10115;50.906;4.438;2022-12-17T07:52:13;-3.70;99.90
19906;DHT22;10115;50.906;4.438;2022-12-17T07:54:58;-3.50;99.90
19906;DHT22;10115;50.906;4.438;2022-12-17T07:57:42;-3.50;99.90
19906;DHT22;10115;50.906;4.438;2022-12-17T08:00:33;-3.50;99.90
19906;DHT22;10115;50.906;4.438;2022-12-17T08:03:17;-3.70;99.90
19906;DHT22;10115;50.906;4.438;2022-12-17T08:06:02;-3.50;99.90
19906;DHT22;10115;50.906;4.438;2022-12-17T08:08:46;-3.30;99.90
19906;DHT22;10115;50.906;4.438;2022-12-17T08:11:30;-3.10;99.90
19906;DHT22;10115;50.906;4.438;2022-12-17T08:14:14;-3.10;99.90
19906;DHT22;10115;50.906;4.438;2022-12-17T08:16:58;-3.20;99.90
19906;DHT22;10115;50.906;4.438;2022-12-17T08:19:42;-3.20;99.90
19906;DHT22;10115;50.906;4.438;2022-12-17T08:22:26;-3.20;99.90
19906;DHT22;10115;50.906;4.438;2022-12-17T08:25:10;-3.20;99.90
19906;DHT22;10115;50.906;4.438;2022-12-17T08:27:59;-3.30;99.90
19906;DHT22;10115;50.906;4.438;2022-12-17T08:30:47;-3.20;99.90
19906;DHT22;10115;50.906;4.438;2022-12-17T08:33:31;-3.20;99.90
19906;DHT22;10115;50.906;4.438;2022-12-17T08:36:15;-3.10;99.90
19906;DHT22;10115;50.906;4.438;2022-12-17T08:38:59;-2.90;99.90
19906;DHT22;10115;50.906;4.438;2022-12-17T08:41:43;-3.00;99.90
19906;DHT22;10115;50.906;4.438;2022-12-17T08:44:28;-2.90;99.90
19906;DHT22;10115;50.906;4.438;2022-12-17T08:47:12;-3.10;99.90
19906;DHT22;10115;50.906;4.438;2022-12-17T08:50:05;-3.10;99.90
19906;DHT22;10115;50.906;4.438;2022-12-17T08:52:56;-3.30;99.90
19906;DHT22;10115;50.906;4.438;2022-12-17T08:55:40;-3.30;99.90
19906;DHT22;10115;50.906;4.438;2022-12-17T08:58:24;-3.20;99.90
19906;DHT22;10115;50.906;4.438;2022-12-17T09:01:08;-2.90;99.90
19906;DHT22;10115;50.906;4.438;2022-12-17T09:03:52;-2.70;99.90
19906;DHT22;10115;50.906;4.438;2022-12-17T09:06:36;-2.80;99.90
19906;DHT22;10115;50.906;4.438;2022-12-17T09:09:20;-2.70;99.90
19906;DHT22;10115;50.906;4.438;2022-12-17T09:12:04;-2.80;99.90
19906;DHT22;10115;50.906;4.438;2022-12-17T09:14:49;-2.90;99.90
19906;DHT22;10115;50.906;4.438;2022-12-17T09:17:33;-2.90;99.90
19906;DHT22;10115;50.906;4.438;2022-12-17T09:20:17;-2.90;99.90
19906;DHT22;10115;50.906;4.438;2022-12-17T09:23:01;-2.90;99.90
19906;DHT22;10115;50.906;4.438;2022-12-17T09:25:55;-2.90;99.90
19906;DHT22;10115;50.906;4.438;2022-12-17T09:28:40;-2.60;99.90
19906;DHT22;10115;50.906;4.438;2022-12-17T09:31:26;-2.70;99.90
19906;DHT22;10115;50.906;4.438;2022-12-17T09:34:10;-2.70;99.90
19906;DHT22;10115;50.906;4.438;2022-12-17T09:36:54;-2.70;99.90
19906;DHT22;10115;50.906;4.438;2022-12-17T09:39:38;-2.70;99.90
19906;DHT22;10115;50.906;4.438;2022-12-17T09:43:03;-2.70;99.90
19906;DHT22;10115;50.906;4.438;2022-12-17T09:45:54;-2.60;99.90
19906;DHT22;10115;50.906;4.438;2022-12-17T09:48:58;-2.50;99.90
19906;DHT22;10115;50.906;4.438;2022-12-17T09:51:43;-2.50;99.90
19906;DHT22;10115;50.906;4.438;2022-12-17T09:54:32;-2.50;99.90
19906;DHT22;10115;50.906;4.438;2022-12-17T09:57:22;-2.40;99.90
19906;DHT22;10115;50.906;4.438;2022-12-17T10:00:19;-2.40;99.90
19906;DHT22;10115;50.906;4.438;2022-12-17T10:03:19;-2.40;99.90
19906;DHT22;10115;50.906;4.438;2022-12-17T10:06:10;-2.30;99.90
19906;DHT22;10115;50.906;4.438;2022-12-17T10:08:59;-2.20;99.90
19906;DHT22;10115;50.906;4.438;2022-12-17T10:11:44;-1.80;99.90
19906;DHT22;10115;50.906;4.438;2022-12-17T10:14:28;-1.90;99.90
19906;DHT22;10115;50.906;4.438;2022-12-17T10:17:18;-1.60;99.90
19906;DHT22;10115;50.906;4.438;2022-12-17T10:20:10;-1.70;99.90
19906;DHT22;10115;50.906;4.438;2022-12-17T10:22:57;-1.60;99.90
19906;DHT22;10115;50.906;4.438;2022-12-17T10:25:49;-1.40;99.90
19906;DHT22;10115;50.906;4.438;2022-12-17T10:28:34;-1.50;99.90
19906;DHT22;10115;50.906;4.438;2022-12-17T10:31:20;-1.50;99.90
19906;DHT22;10115;50.906;4.438;2022-12-17T10:34:14;-1.40;99.90
19906;DHT22;10115;50.906;4.438;2022-12-17T10:36:59;-1.20;99.90
19906;DHT22;10115;50.906;4.438;2022-12-17T10:39:57;-1.10;99.90
19906;DHT22;10115;50.906;4.438;2022-12-17T10:42:43;-1.10;99.90
19906;DHT22;10115;50.906;4.438;2022-12-17T10:45:33;-0.80;99.90
19906;DHT22;10115;50.906;4.438;2022-12-17T10:48:20;-0.90;99.90
19906;DHT22;10115;50.906;4.438;2022-12-17T10:51:16;-0.80;99.90
19906;DHT22;10115;50.906;4.438;2022-12-17T10:54:08;-0.60;99.90
19906;DHT22;10115;50.906;4.438;2022-12-17T10:56:54;-0.50;99.90
19906;DHT22;10115;50.906;4.438;2022-12-17T10:59:39;-0.80;99.90
19906;DHT22;10115;50.906;4.438;2022-12-17T11:02:27;-0.50;99.90
19906;DHT22;10115;50.906;4.438;2022-12-17T11:05:28;-0.60;99.90
19906;DHT22;10115;50.906;4.438;2022-12-17T11:08:17;-0.50;99.90
19906;DHT22;10115;50.906;4.438;2022-12-17T11:11:03;-0.30;99.90
19906;DHT22;10115;50.906;4.438;2022-12-17T11:14:00;-0.40;99.90
19906;DHT22;10115;50.906;4.438;2022-12-17T11:16:52;-0.40;99.90
19906;DHT22;10115;50.906;4.438;2022-12-17T11:19:56;-0.50;99.90
19906;DHT22;10115;50.906;4.438;2022-12-17T11:22:55;-0.60;99.90
19906;DHT22;10115;50.906;4.438;2022-12-17T11:28:47;-0.40;99.90
19906;DHT22;10115;50.906;4.438;2022-12-17T11:31:59;-0.40;99.90
19906;DHT22;10115;50.906;4.438;2022-12-17T11:38:03;-0.10;99.90
19906;DHT22;10115;50.906;4.438;2022-12-17T11:41:17;-0.10;99.90
19906;DHT22;10115;50.906;4.438;2022-12-17T11:53:42;0.10;99.90
19906;DHT22;10115;50.906;4.438;2022-12-17T11:56:34;0.30;99.90
19906;DHT22;10115;50.906;4.438;2022-12-17T11:59:32;0.30;99.90
19906;DHT22;10115;50.906;4.438;2022-12-17T12:05:25;0.00;99.90
19906;DHT22;10115;50.906;4.438;2022-12-17T12:17:53;0.00;99.90
19906;DHT22;10115;50.906;4.438;2022-12-17T12:20:51;0.20;99.90
19906;DHT22;10115;50.906;4.438;2022-12-17T12:27:07;0.40;99.90
19906;DHT22;10115;50.906;4.438;2022-12-17T12:30:09;0.30;99.90
19906;DHT22;10115;50.906;4.438;2022-12-17T12:36:06;0.40;99.90
19906;DHT22;10115;50.906;4.438;2022-12-17T12:38:53;0.60;99.90
19906;DHT22;10115;50.906;4.438;2022-12-17T12:41:54;0.50;99.90
19906;DHT22;10115;50.906;4.438;2022-12-17T12:47:45;0.60;99.90
19906;DHT22;10115;50.906;4.438;2022-12-17T12:50:44;0.80;99.90
19906;DHT22;10115;50.906;4.438;2022-12-17T12:53:29;0.80;99.90
19906;DHT22;10115;50.906;4.438;2022-12-17T12:59:24;0.80;99.90
19906;DHT22;10115;50.906;4.438;2022-12-17T13:02:28;0.70;99.90
19906;DHT22;10115;50.906;4.438;2022-12-17T13:05:42;0.90;99.90
19906;DHT22;10115;50.906;4.438;2022-12-17T13:08:21;0.90;99.90
19906;DHT22;10115;50.906;4.438;2022-12-17T13:10:48;0.70;99.90
19906;DHT22;10115;50.906;4.438;2022-12-17T13:15:58;0.50;99.90
19906;DHT22;10115;50.906;4.438;2022-12-17T13:18:37;0.60;99.90
19906;DHT22;10115;50.906;4.438;2022-12-17T13:23:41;0.70;99.90
19906;DHT22;10115;50.906;4.438;2022-12-17T13:31:25;0.60;99.90
19906;DHT22;10115;50.906;4.438;2022-12-17T13:39:38;0.70;99.90
19906;DHT22;10115;50.906;4.438;2022-12-17T13:42:24;0.80;99.90
19906;DHT22;10115;50.906;4.438;2022-12-17T13:44:52;1.00;99.90
19906;DHT22;10115;50.906;4.438;2022-12-17T13:47:21;1.00;99.90
19906;DHT22;10115;50.906;4.438;2022-12-17T13:49:56;0.90;99.90
19906;DHT22;10115;50.906;4.438;2022-12-17T13:52:26;0.90;99.90
19906;DHT22;10115;50.906;4.438;2022-12-17T13:54:52;0.80;99.90
19906;DHT22;10115;50.906;4.438;2022-12-17T13:57:24;0.70;99.90
19906;DHT22;10115;50.906;4.438;2022-12-17T13:59:58;0.70;99.90
19906;DHT22;10115;50.906;4.438;2022-12-17T14:02:35;0.70;99.90
19906;DHT22;10115;50.906;4.438;2022-12-17T14:05:05;0.60;99.90
19906;DHT22;10115;50.906;4.438;2022-12-17T14:07:33;0.50;99.90
19906;DHT22;10115;50.906;4.438;2022-12-17T14:10:01;0.50;99.90
19906;DHT22;10115;50.906;4.438;2022-12-17T14:12:27;0.70;99.90
19906;DHT22;10115;50.906;4.438;2022-12-17T14:14:58;0.70;99.90
19906;DHT22;10115;50.906;4.438;2022-12-17T14:17:27;0.40;99.90
19906;DHT22;10115;50.906;4.438;2022-12-17T14:20:17;0.30;99.90
19906;DHT22;10115;50.906;4.438;2022-12-17T14:22:48;0.40;99.90
19906;DHT22;10115;50.906;4.438;2022-12-17T14:27:56;0.20;99.90
19906;DHT22;10115;50.906;4.438;2022-12-17T14:30:44;0.00;99.90
19906;DHT22;10115;50.906;4.438;2022-12-17T14:33:33;-0.20;99.90
19906;DHT22;10115;50.906;4.438;2022-12-17T14:36:02;-0.30;99.90
19906;DHT22;10115;50.906;4.438;2022-12-17T14:38:30;-0.20;99.90
19906;DHT22;10115;50.906;4.438;2022-12-17T14:41:01;-0.20;99.90
19906;DHT22;10115;50.906;4.438;2022-12-17T14:43:54;-0.30;99.90
19906;DHT22;10115;50.906;4.438;2022-12-17T14:46:21;-0.50;99.90
19906;DHT22;10115;50.906;4.438;2022-12-17T14:48:53;-0.40;99.90
19906;DHT22;10115;50.906;4.438;2022-12-17T14:51:36;-0.30;99.90
19906;DHT22;10115;50.906;4.438;2022-12-17T14:56:45;-0.30;99.90
19906;DHT22;10115;50.906;4.438;2022-12-17T14:59:35;-0.30;99.90
19906;DHT22;10115;50.906;4.438;2022-12-17T15:04:35;-0.40;99.90
19906;DHT22;10115;50.906;4.438;2022-12-17T15:07:01;-0.30;99.90
19906;DHT22;10115;50.906;4.438;2022-12-17T15:09:26;-0.30;99.90
19906;DHT22;10115;50.906;4.438;2022-12-17T15:11:52;-0.40;99.90
19906;DHT22;10115;50.906;4.438;2022-12-17T15:14:18;-0.50;99.90
19906;DHT22;10115;50.906;4.438;2022-12-17T15:16:43;-0.60;99.90
19906;DHT22;10115;50.906;4.438;2022-12-17T15:19:10;-0.70;99.90
19906;DHT22;10115;50.906;4.438;2022-12-17T15:21:36;-0.80;99.90
19906;DHT22;10115;50.906;4.438;2022-12-17T15:24:01;-0.80;99.90
19906;DHT22;10115;50.906;4.438;2022-12-17T15:26:27;-0.90;99.90
19906;DHT22;10115;50.906;4.438;2022-12-17T15:28:53;-1.00;99.90
19906;DHT22;10115;50.906;4.438;2022-12-17T15:31:18;-1.00;99.90
19906;DHT22;10115;50.906;4.438;2022-12-17T15:33:44;-1.00;99.90
19906;DHT22;10115;50.906;4.438;2022-12-17T15:36:10;-1.00;99.90
19906;DHT22;10115;50.906;4.438;2022-12-17T15:38:36;-0.90;99.90
19906;DHT22;10115;50.906;4.438;2022-12-17T15:41:04;-0.90;99.90
19906;DHT22;10115;50.906;4.438;2022-12-17T15:43:50;-1.00;99.90
19906;DHT22;10115;50.906;4.438;2022-12-17T15:46:16;-1.00;99.90
19906;DHT22;10115;50.906;4.438;2022-12-17T15:48:42;-1.00;99.90
19906;DHT22;10115;50.906;4.438;2022-12-17T15:51:08;-0.80;99.90
19906;DHT22;10115;50.906;4.438;2022-12-17T15:53:34;-0.90;99.90
19906;DHT22;10115;50.906;4.438;2022-12-17T15:56:03;-1.00;99.90
19906;DHT22;10115;50.906;4.438;2022-12-17T15:58:29;-1.00;99.90
19906;DHT22;10115;50.906;4.438;2022-12-17T16:00:55;-1.10;99.90
19906;DHT22;10115;50.906;4.438;2022-12-17T16:03:21;-1.20;99.90
19906;DHT22;10115;50.906;4.438;2022-12-17T16:05:46;-1.30;99.90
19906;DHT22;10115;50.906;4.438;2022-12-17T16:08:12;-1.30;99.90
19906;DHT22;10115;50.906;4.438;2022-12-17T16:10:38;-1.40;99.90
19906;DHT22;10115;50.906;4.438;2022-12-17T16:13:04;-1.50;99.90
19906;DHT22;10115;50.906;4.438;2022-12-17T16:15:30;-1.50;99.90
19906;DHT22;10115;50.906;4.438;2022-12-17T16:17:56;-1.60;99.90
19906;DHT22;10115;50.906;4.438;2022-12-17T16:20:22;-1.60;99.90
19906;DHT22;10115;50.906;4.438;2022-12-17T16:22:48;-1.80;99.90
19906;DHT22;10115;50.906;4.438;2022-12-17T16:25:14;-1.70;99.90
19906;DHT22;10115;50.906;4.438;2022-12-17T16:27:39;-1.80;99.90
19906;DHT22;10115;50.906;4.438;2022-12-17T16:30:05;-1.70;99.90
19906;DHT22;10115;50.906;4.438;2022-12-17T16:32:31;-1.90;99.90
19906;DHT22;10115;50.906;4.438;2022-12-17T16:34:58;-1.90;99.90
19906;DHT22;10115;50.906;4.438;2022-12-17T16:37:24;-2.10;99.90
19906;DHT22;10115;50.906;4.438;2022-12-17T16:39:50;-2.10;99.90
19906;DHT22;10115;50.906;4.438;2022-12-17T16:42:15;-2.10;99.90
19906;DHT22;10115;50.906;4.438;2022-12-17T16:44:41;-2.10;99.90
19906;DHT22;10115;50.906;4.438;2022-12-17T16:47:07;-2.00;99.90
19906;DHT22;10115;50.906;4.438;2022-12-17T16:49:34;-1.90;99.90
19906;DHT22;10115;50.906;4.438;2022-12-17T16:51:59;-1.90;99.90
19906;DHT22;10115;50.906;4.438;2022-12-17T16:54:29;-1.80;99.90
19906;DHT22;10115;50.906;4.438;2022-12-17T16:56:56;-1.90;99.90
19906;DHT22;10115;50.906;4.438;2022-12-17T16:59:22;-1.80;99.90
19906;DHT22;10115;50.906;4.438;2022-12-17T17:01:49;-1.70;99.90
19906;DHT22;10115;50.906;4.438;2022-12-17T17:04:17;-1.80;99.90
19906;DHT22;10115;50.906;4.438;2022-12-17T17:06:48;-1.70;99.90
19906;DHT22;10115;50.906;4.438;2022-12-17T17:09:14;-1.80;99.90
19906;DHT22;10115;50.906;4.438;2022-12-17T17:11:41;-1.90;99.90
19906;DHT22;10115;50.906;4.438;2022-12-17T17:14:07;-1.90;99.90
19906;DHT22;10115;50.906;4.438;2022-12-17T17:16:34;-2.00;99.90
19906;DHT22;10115;50.906;4.438;2022-12-17T17:19:00;-1.90;99.90
19906;DHT22;10115;50.906;4.438;2022-12-17T17:21:34;-1.80;99.90
19906;DHT22;10115;50.906;4.438;2022-12-17T17:24:05;-1.70;99.90
19906;DHT22;10115;50.906;4.438;2022-12-17T17:26:32;-1.60;99.90
19906;DHT22;10115;50.906;4.438;2022-12-17T17:28:58;-1.60;99.90
19906;DHT22;10115;50.906;4.438;2022-12-17T17:31:25;-1.70;99.90
19906;DHT22;10115;50.906;4.438;2022-12-17T17:33:51;-1.80;99.90
19906;DHT22;10115;50.906;4.438;2022-12-17T17:36:26;-1.60;99.90
19906;DHT22;10115;50.906;4.438;2022-12-17T17:38:53;-1.80;99.90
19906;DHT22;10115;50.906;4.438;2022-12-17T17:41:21;-1.80;99.90
19906;DHT22;10115;50.906;4.438;2022-12-17T17:43:52;-1.80;99.90
19906;DHT22;10115;50.906;4.438;2022-12-17T17:46:19;-1.70;99.90
19906;DHT22;10115;50.906;4.438;2022-12-17T17:48:46;-1.70;99.90
19906;DHT22;10115;50.906;4.438;2022-12-17T17:51:14;-1.70;99.90
19906;DHT22;10115;50.906;4.438;2022-12-17T17:53:40;-1.90;99.90
19906;DHT22;10115;50.906;4.438;2022-12-17T17:56:12;-1.90;99.90
19906;DHT22;10115;50.906;4.438;2022-12-17T17:58:42;-1.70;99.90
19906;DHT22;10115;50.906;4.438;2022-12-17T18:01:18;-1.70;99.90
19906;DHT22;10115;50.906;4.438;2022-12-17T18:03:44;-1.60;99.90
19906;DHT22;10115;50.906;4.438;2022-12-17T18:06:12;-1.60;99.90
19906;DHT22;10115;50.906;4.438;2022-12-17T18:08:39;-1.60;99.90
19906;DHT22;10115;50.906;4.438;2022-12-17T18:11:08;-1.50;99.90
19906;DHT22;10115;50.906;4.438;2022-12-17T18:13:34;-1.30;99.90
19906;DHT22;10115;50.906;4.438;2022-12-17T18:16:19;-1.10;99.90